| Date | Time | Temp. (oF) | Dew Point (oF) | Rel. Hum. (%) | Press. (in.) | Wind Dir. | Wind Speed (mph) | Hourly Rainfall (in.) |
|
|---|---|---|---|---|---|---|---|---|---|
| 1 | 10/09 | 00:00 | 35 | 31 | 87 | 30.63 | S | 0 | 0.00 |
| 2 | 10/08 | 23:00 | 38 | 32 | 82 | 30.62 | SSE | 0 | 0.00 |
| 3 | 10/08 | 22:00 | 39 | 32 | 76 | 30.60 | SSW | 0 | 0.00 |
| 4 | 10/08 | 21:00 | 42 | 32 | 69 | 30.59 | SSW | 0 | 0.00 |
| 5 | 10/08 | 20:00 | 46 | 32 | 58 | 30.58 | NW | 0 | 0.00 |
| 6 | 10/08 | 19:00 | 50 | 28 | 43 | 30.55 | NNW | 2 | 0.00 |
| 7 | 10/08 | 18:00 | 52 | 24 | 34 | 30.52 | NW | 3 | 0.00 |
| 8 | 10/08 | 17:00 | 52 | 23 | 33 | 30.50 | NW | 6 | 0.00 |
| 9 | 10/08 | 16:00 | 52 | 25 | 35 | 30.50 | W | 6 | 0.00 |
| 10 | 10/08 | 15:00 | 51 | 24 | 35 | 30.52 | NW | 8 | 0.00 |
| 11 | 10/08 | 14:00 | 51 | 26 | 38 | 30.54 | W | 6 | 0.00 |
| 12 | 10/08 | 13:00 | 50 | 25 | 39 | 30.55 | NW | 4 | 0.00 |
| 13 | 10/08 | 12:00 | 47 | 24 | 41 | 30.56 | SW | 2 | 0.00 |
| 14 | 10/08 | 11:00 | 45 | 27 | 50 | 30.57 | N | 5 | 0.00 |
| 15 | 10/08 | 10:00 | 43 | 29 | 59 | 30.56 | NW | 6 | 0.00 |
| 16 | 10/08 | 09:00 | 41 | 30 | 66 | 30.54 | NW | 5 | 0.00 |
| 17 | 10/08 | 08:00 | 37 | 30 | 77 | 30.52 | W | 1 | 0.00 |
| 18 | 10/08 | 07:00 | 36 | 30 | 80 | 30.48 | W | 0 | 0.00 |
| 19 | 10/08 | 06:00 | 36 | 30 | 81 | 30.45 | WNW | 1 | 0.00 |
| 20 | 10/08 | 05:00 | 36 | 30 | 79 | 30.43 | W | 1 | 0.00 |
| 21 | 10/08 | 04:00 | 37 | 31 | 79 | 30.41 | WSW | 1 | 0.00 |
| 22 | 10/08 | 03:00 | 36 | 31 | 82 | 30.40 | WSW | 0 | 0.00 |
| 23 | 10/08 | 02:00 | 38 | 30 | 74 | 30.38 | WSW | 1 | 0.00 |
| 24 | 10/08 | 01:00 | 40 | 30 | 70 | 30.36 | W | 0 | 0.00 |